sensor_id;sensor_type;location;lat;lon;timestamp;P1;durP1;ratioP1;P2;durP2;ratioP2
8556;SDS011;4316;53.840;10.762;2022-07-22T00:00:20;13.10;;;9.95;;
8556;SDS011;4316;53.840;10.762;2022-07-22T00:02:46;12.40;;;8.25;;
8556;SDS011;4316;53.840;10.762;2022-07-22T00:05:11;11.13;;;9.10;;
8556;SDS011;4316;53.840;10.762;2022-07-22T00:07:37;12.18;;;10.13;;
8556;SDS011;4316;53.840;10.762;2022-07-22T00:10:05;13.77;;;10.18;;
8556;SDS011;4316;53.840;10.762;2022-07-22T00:12:31;15.75;;;10.68;;
8556;SDS011;4316;53.840;10.762;2022-07-22T00:14:57;11.95;;;9.15;;
8556;SDS011;4316;53.840;10.762;2022-07-22T00:17:23;17.90;;;10.90;;
8556;SDS011;4316;53.840;10.762;2022-07-22T00:19:49;21.67;;;11.10;;
8556;SDS011;4316;53.840;10.762;2022-07-22T00:22:14;12.57;;;9.90;;
8556;SDS011;4316;53.840;10.762;2022-07-22T00:24:40;14.55;;;10.35;;
8556;SDS011;4316;53.840;10.762;2022-07-22T00:27:05;17.20;;;10.23;;
8556;SDS011;4316;53.840;10.762;2022-07-22T00:29:31;20.73;;;12.20;;
8556;SDS011;4316;53.840;10.762;2022-07-22T00:31:57;20.75;;;10.80;;
8556;SDS011;4316;53.840;10.762;2022-07-22T00:34:22;20.58;;;11.25;;
8556;SDS011;4316;53.840;10.762;2022-07-22T00:36:49;22.38;;;11.82;;
8556;SDS011;4316;53.840;10.762;2022-07-22T00:39:15;17.73;;;12.05;;
8556;SDS011;4316;53.840;10.762;2022-07-22T00:41:42;22.45;;;12.27;;
8556;SDS011;4316;53.840;10.762;2022-07-22T00:44:07;15.13;;;12.35;;
8556;SDS011;4316;53.840;10.762;2022-07-22T00:46:34;20.88;;;12.80;;
8556;SDS011;4316;53.840;10.762;2022-07-22T00:49:01;21.73;;;13.27;;
8556;SDS011;4316;53.840;10.762;2022-07-22T00:51:29;27.33;;;11.52;;
8556;SDS011;4316;53.840;10.762;2022-07-22T00:53:55;24.77;;;12.73;;
8556;SDS011;4316;53.840;10.762;2022-07-22T00:56:22;17.55;;;12.25;;
8556;SDS011;4316;53.840;10.762;2022-07-22T00:58:49;23.17;;;12.57;;
8556;SDS011;4316;53.840;10.762;2022-07-22T01:01:16;18.95;;;12.00;;
8556;SDS011;4316;53.840;10.762;2022-07-22T01:03:42;17.17;;;12.05;;
8556;SDS011;4316;53.840;10.762;2022-07-22T01:06:08;17.92;;;12.45;;
8556;SDS011;4316;53.840;10.762;2022-07-22T01:08:34;20.27;;;13.52;;
8556;SDS011;4316;53.840;10.762;2022-07-22T01:11:09;20.17;;;12.35;;
8556;SDS011;4316;53.840;10.762;2022-07-22T01:13:39;23.40;;;13.75;;
8556;SDS011;4316;53.840;10.762;2022-07-22T01:16:06;30.25;;;13.25;;
8556;SDS011;4316;53.840;10.762;2022-07-22T01:18:33;15.65;;;11.75;;
8556;SDS011;4316;53.840;10.762;2022-07-22T01:20:59;22.45;;;12.88;;
8556;SDS011;4316;53.840;10.762;2022-07-22T01:23:27;24.33;;;13.38;;
8556;SDS011;4316;53.840;10.762;2022-07-22T01:25:53;20.98;;;14.07;;
8556;SDS011;4316;53.840;10.762;2022-07-22T01:28:19;21.40;;;12.32;;
8556;SDS011;4316;53.840;10.762;2022-07-22T01:30:45;22.23;;;14.18;;
8556;SDS011;4316;53.840;10.762;2022-07-22T01:33:10;24.13;;;14.35;;
8556;SDS011;4316;53.840;10.762;2022-07-22T01:35:36;23.92;;;14.07;;
8556;SDS011;4316;53.840;10.762;2022-07-22T01:38:02;16.40;;;12.50;;
8556;SDS011;4316;53.840;10.762;2022-07-22T01:40:27;19.00;;;12.98;;
8556;SDS011;4316;53.840;10.762;2022-07-22T01:42:53;22.67;;;12.50;;
8556;SDS011;4316;53.840;10.762;2022-07-22T01:45:19;21.92;;;12.60;;
8556;SDS011;4316;53.840;10.762;2022-07-22T01:47:44;20.05;;;13.95;;
8556;SDS011;4316;53.840;10.762;2022-07-22T01:50:11;28.02;;;15.13;;
8556;SDS011;4316;53.840;10.762;2022-07-22T01:52:37;18.05;;;14.05;;
8556;SDS011;4316;53.840;10.762;2022-07-22T01:55:04;21.73;;;14.52;;
8556;SDS011;4316;53.840;10.762;2022-07-22T01:57:32;19.27;;;13.73;;
8556;SDS011;4316;53.840;10.762;2022-07-22T01:59:59;16.58;;;12.75;;
8556;SDS011;4316;53.840;10.762;2022-07-22T02:02:24;17.27;;;12.07;;
8556;SDS011;4316;53.840;10.762;2022-07-22T02:04:50;11.55;;;6.45;;
8556;SDS011;4316;53.840;10.762;2022-07-22T02:07:15;14.00;;;6.25;;
8556;SDS011;4316;53.840;10.762;2022-07-22T02:09:41;15.23;;;5.00;;
8556;SDS011;4316;53.840;10.762;2022-07-22T02:12:07;6.10;;;3.97;;
8556;SDS011;4316;53.840;10.762;2022-07-22T02:14:39;12.80;;;3.97;;
8556;SDS011;4316;53.840;10.762;2022-07-22T02:17:04;6.35;;;3.20;;
8556;SDS011;4316;53.840;10.762;2022-07-22T02:19:30;7.30;;;2.90;;
8556;SDS011;4316;53.840;10.762;2022-07-22T02:21:56;4.72;;;2.72;;
8556;SDS011;4316;53.840;10.762;2022-07-22T02:24:22;6.85;;;2.55;;
8556;SDS011;4316;53.840;10.762;2022-07-22T02:26:48;9.50;;;2.88;;
8556;SDS011;4316;53.840;10.762;2022-07-22T02:29:13;7.43;;;2.67;;
8556;SDS011;4316;53.840;10.762;2022-07-22T02:31:39;2.92;;;1.98;;
8556;SDS011;4316;53.840;10.762;2022-07-22T02:34:06;2.97;;;1.60;;
8556;SDS011;4316;53.840;10.762;2022-07-22T02:36:33;5.80;;;1.60;;
8556;SDS011;4316;53.840;10.762;2022-07-22T02:38:59;3.72;;;1.70;;
8556;SDS011;4316;53.840;10.762;2022-07-22T02:41:24;3.85;;;2.30;;
8556;SDS011;4316;53.840;10.762;2022-07-22T02:43:54;4.47;;;1.52;;
8556;SDS011;4316;53.840;10.762;2022-07-22T02:46:21;2.38;;;1.85;;
8556;SDS011;4316;53.840;10.762;2022-07-22T02:48:47;4.90;;;2.40;;
8556;SDS011;4316;53.840;10.762;2022-07-22T02:51:16;4.43;;;2.07;;
8556;SDS011;4316;53.840;10.762;2022-07-22T02:53:42;2.97;;;2.00;;
8556;SDS011;4316;53.840;10.762;2022-07-22T02:56:07;6.00;;;2.37;;
8556;SDS011;4316;53.840;10.762;2022-07-22T02:58:33;2.93;;;2.40;;
8556;SDS011;4316;53.840;10.762;2022-07-22T03:00:59;4.93;;;2.43;;
8556;SDS011;4316;53.840;10.762;2022-07-22T03:03:25;4.97;;;2.10;;
8556;SDS011;4316;53.840;10.762;2022-07-22T03:05:52;7.13;;;2.13;;
8556;SDS011;4316;53.840;10.762;2022-07-22T03:08:23;6.63;;;1.90;;
8556;SDS011;4316;53.840;10.762;2022-07-22T03:10:48;9.77;;;2.30;;
8556;SDS011;4316;53.840;10.762;2022-07-22T03:13:14;12.23;;;2.80;;
8556;SDS011;4316;53.840;10.762;2022-07-22T03:15:40;8.50;;;1.93;;
8556;SDS011;4316;53.840;10.762;2022-07-22T03:18:05;4.67;;;1.80;;
8556;SDS011;4316;53.840;10.762;2022-07-22T03:20:31;5.60;;;2.20;;
8556;SDS011;4316;53.840;10.762;2022-07-22T03:22:58;5.33;;;2.13;;
8556;SDS011;4316;53.840;10.762;2022-07-22T03:25:24;3.60;;;1.83;;
8556;SDS011;4316;53.840;10.762;2022-07-22T03:27:50;5.33;;;2.10;;
8556;SDS011;4316;53.840;10.762;2022-07-22T03:30:15;5.70;;;2.30;;
8556;SDS011;4316;53.840;10.762;2022-07-22T03:32:42;11.10;;;3.00;;
8556;SDS011;4316;53.840;10.762;2022-07-22T03:35:13;7.63;;;2.50;;
8556;SDS011;4316;53.840;10.762;2022-07-22T03:37:41;12.40;;;2.63;;
8556;SDS011;4316;53.840;10.762;2022-07-22T03:40:07;7.83;;;2.00;;
8556;SDS011;4316;53.840;10.762;2022-07-22T03:42:34;7.03;;;2.63;;
8556;SDS011;4316;53.840;10.762;2022-07-22T03:44:59;12.00;;;2.30;;
8556;SDS011;4316;53.840;10.762;2022-07-22T03:47:25;4.37;;;1.93;;
8556;SDS011;4316;53.840;10.762;2022-07-22T03:49:51;8.23;;;1.90;;
8556;SDS011;4316;53.840;10.762;2022-07-22T03:52:23;4.23;;;1.90;;
8556;SDS011;4316;53.840;10.762;2022-07-22T03:54:50;11.30;;;2.07;;
8556;SDS011;4316;53.840;10.762;2022-07-22T03:57:16;5.60;;;1.83;;
8556;SDS011;4316;53.840;10.762;2022-07-22T03:59:41;8.67;;;2.00;;
8556;SDS011;4316;53.840;10.762;2022-07-22T04:02:07;5.27;;;1.80;;
8556;SDS011;4316;53.840;10.762;2022-07-22T04:04:32;6.30;;;1.73;;
8556;SDS011;4316;53.840;10.762;2022-07-22T04:06:58;7.40;;;1.90;;
8556;SDS011;4316;53.840;10.762;2022-07-22T04:09:30;9.20;;;2.20;;
8556;SDS011;4316;53.840;10.762;2022-07-22T04:11:56;9.83;;;2.60;;
8556;SDS011;4316;53.840;10.762;2022-07-22T04:14:24;9.47;;;2.20;;
8556;SDS011;4316;53.840;10.762;2022-07-22T04:16:50;10.07;;;2.13;;
8556;SDS011;4316;53.840;10.762;2022-07-22T04:19:15;3.63;;;1.97;;
8556;SDS011;4316;53.840;10.762;2022-07-22T04:21:52;9.83;;;2.23;;
8556;SDS011;4316;53.840;10.762;2022-07-22T04:24:20;7.50;;;2.37;;
8556;SDS011;4316;53.840;10.762;2022-07-22T04:26:46;12.60;;;2.67;;
8556;SDS011;4316;53.840;10.762;2022-07-22T04:29:11;4.40;;;2.00;;
8556;SDS011;4316;53.840;10.762;2022-07-22T04:31:38;8.43;;;2.70;;
8556;SDS011;4316;53.840;10.762;2022-07-22T04:34:09;8.30;;;2.33;;
8556;SDS011;4316;53.840;10.762;2022-07-22T04:36:35;9.80;;;2.00;;
8556;SDS011;4316;53.840;10.762;2022-07-22T04:39:00;7.93;;;2.17;;
8556;SDS011;4316;53.840;10.762;2022-07-22T04:41:26;11.40;;;2.20;;
8556;SDS011;4316;53.840;10.762;2022-07-22T04:43:52;7.27;;;2.10;;
8556;SDS011;4316;53.840;10.762;2022-07-22T04:46:21;5.83;;;2.20;;
8556;SDS011;4316;53.840;10.762;2022-07-22T04:48:46;7.30;;;2.37;;
8556;SDS011;4316;53.840;10.762;2022-07-22T04:51:14;6.37;;;2.10;;
8556;SDS011;4316;53.840;10.762;2022-07-22T04:53:42;7.67;;;2.17;;
8556;SDS011;4316;53.840;10.762;2022-07-22T04:56:08;16.40;;;2.27;;
8556;SDS011;4316;53.840;10.762;2022-07-22T04:58:34;8.83;;;2.37;;
8556;SDS011;4316;53.840;10.762;2022-07-22T05:00:59;6.47;;;2.20;;
8556;SDS011;4316;53.840;10.762;2022-07-22T05:03:25;8.47;;;2.50;;
8556;SDS011;4316;53.840;10.762;2022-07-22T05:05:52;9.87;;;2.20;;
8556;SDS011;4316;53.840;10.762;2022-07-22T05:08:25;11.68;;;2.20;;
8556;SDS011;4316;53.840;10.762;2022-07-22T05:10:52;6.37;;;2.43;;
8556;SDS011;4316;53.840;10.762;2022-07-22T05:13:17;13.13;;;2.83;;
8556;SDS011;4316;53.840;10.762;2022-07-22T05:15:43;10.80;;;2.50;;
8556;SDS011;4316;53.840;10.762;2022-07-22T05:18:09;3.80;;;2.20;;
8556;SDS011;4316;53.840;10.762;2022-07-22T05:20:34;12.20;;;2.50;;
8556;SDS011;4316;53.840;10.762;2022-07-22T05:23:01;12.87;;;2.83;;
8556;SDS011;4316;53.840;10.762;2022-07-22T05:25:32;8.18;;;2.22;;
8556;SDS011;4316;53.840;10.762;2022-07-22T05:27:57;10.27;;;3.50;;
8556;SDS011;4316;53.840;10.762;2022-07-22T05:30:43;8.38;;;2.17;;
8556;SDS011;4316;53.840;10.762;2022-07-22T05:33:09;10.00;;;2.67;;
8556;SDS011;4316;53.840;10.762;2022-07-22T05:36:01;13.17;;;2.93;;
8556;SDS011;4316;53.840;10.762;2022-07-22T05:38:33;12.80;;;3.07;;
8556;SDS011;4316;53.840;10.762;2022-07-22T05:40:59;9.25;;;3.10;;
8556;SDS011;4316;53.840;10.762;2022-07-22T05:43:25;7.70;;;2.90;;
8556;SDS011;4316;53.840;10.762;2022-07-22T05:45:50;7.50;;;2.93;;
8556;SDS011;4316;53.840;10.762;2022-07-22T05:48:17;16.00;;;3.53;;
8556;SDS011;4316;53.840;10.762;2022-07-22T05:50:43;11.83;;;4.17;;
8556;SDS011;4316;53.840;10.762;2022-07-22T05:53:09;16.70;;;4.28;;
8556;SDS011;4316;53.840;10.762;2022-07-22T05:55:35;13.80;;;3.73;;
8556;SDS011;4316;53.840;10.762;2022-07-22T05:58:01;11.98;;;3.90;;
8556;SDS011;4316;53.840;10.762;2022-07-22T06:00:27;10.47;;;3.70;;
8556;SDS011;4316;53.840;10.762;2022-07-22T06:02:52;16.75;;;4.03;;
8556;SDS011;4316;53.840;10.762;2022-07-22T06:05:20;20.98;;;4.78;;
8556;SDS011;4316;53.840;10.762;2022-07-22T06:07:46;11.10;;;4.03;;
8556;SDS011;4316;53.840;10.762;2022-07-22T06:10:22;15.63;;;4.43;;
8556;SDS011;4316;53.840;10.762;2022-07-22T06:12:49;14.67;;;4.23;;
8556;SDS011;4316;53.840;10.762;2022-07-22T06:15:14;15.33;;;4.47;;
8556;SDS011;4316;53.840;10.762;2022-07-22T06:17:41;14.20;;;4.70;;
8556;SDS011;4316;53.840;10.762;2022-07-22T06:20:08;13.98;;;3.85;;
8556;SDS011;4316;53.840;10.762;2022-07-22T06:22:34;14.80;;;3.75;;
8556;SDS011;4316;53.840;10.762;2022-07-22T06:24:59;15.85;;;4.22;;
8556;SDS011;4316;53.840;10.762;2022-07-22T06:27:25;16.50;;;3.90;;
8556;SDS011;4316;53.840;10.762;2022-07-22T06:29:52;25.10;;;4.07;;
8556;SDS011;4316;53.840;10.762;2022-07-22T06:32:17;18.95;;;4.15;;
8556;SDS011;4316;53.840;10.762;2022-07-22T06:34:43;14.32;;;4.32;;
8556;SDS011;4316;53.840;10.762;2022-07-22T06:37:09;12.77;;;3.78;;
8556;SDS011;4316;53.840;10.762;2022-07-22T06:39:35;11.20;;;3.40;;
8556;SDS011;4316;53.840;10.762;2022-07-22T06:42:19;15.60;;;3.38;;
8556;SDS011;4316;53.840;10.762;2022-07-22T06:45:03;14.23;;;3.45;;
8556;SDS011;4316;53.840;10.762;2022-07-22T06:47:38;17.33;;;4.03;;
8556;SDS011;4316;53.840;10.762;2022-07-22T06:50:05;23.23;;;4.67;;
8556;SDS011;4316;53.840;10.762;2022-07-22T06:52:32;14.40;;;3.45;;
8556;SDS011;4316;53.840;10.762;2022-07-22T06:54:59;16.25;;;3.35;;
8556;SDS011;4316;53.840;10.762;2022-07-22T06:57:29;10.77;;;3.00;;
8556;SDS011;4316;53.840;10.762;2022-07-22T06:59:55;20.25;;;4.43;;
8556;SDS011;4316;53.840;10.762;2022-07-22T07:02:22;19.55;;;4.30;;
8556;SDS011;4316;53.840;10.762;2022-07-22T07:04:48;13.27;;;3.13;;
8556;SDS011;4316;53.840;10.762;2022-07-22T07:07:13;10.98;;;3.20;;
8556;SDS011;4316;53.840;10.762;2022-07-22T07:09:56;17.38;;;3.72;;
8556;SDS011;4316;53.840;10.762;2022-07-22T07:12:42;17.70;;;4.32;;
8556;SDS011;4316;53.840;10.762;2022-07-22T07:15:08;14.73;;;3.58;;
8556;SDS011;4316;53.840;10.762;2022-07-22T07:17:34;20.90;;;3.80;;
8556;SDS011;4316;53.840;10.762;2022-07-22T07:20:04;20.38;;;5.68;;
8556;SDS011;4316;53.840;10.762;2022-07-22T07:22:32;16.45;;;3.00;;
8556;SDS011;4316;53.840;10.762;2022-07-22T07:25:01;15.02;;;3.72;;
8556;SDS011;4316;53.840;10.762;2022-07-22T07:27:29;23.42;;;3.95;;
8556;SDS011;4316;53.840;10.762;2022-07-22T07:29:55;12.45;;;3.00;;
8556;SDS011;4316;53.840;10.762;2022-07-22T07:32:21;17.88;;;4.45;;
8556;SDS011;4316;53.840;10.762;2022-07-22T07:34:47;14.05;;;3.92;;
8556;SDS011;4316;53.840;10.762;2022-07-22T07:37:13;18.40;;;3.53;;
8556;SDS011;4316;53.840;10.762;2022-07-22T07:39:38;23.52;;;3.90;;
8556;SDS011;4316;53.840;10.762;2022-07-22T07:42:05;12.03;;;3.20;;
8556;SDS011;4316;53.840;10.762;2022-07-22T07:44:31;14.63;;;3.30;;
8556;SDS011;4316;53.840;10.762;2022-07-22T07:46:57;15.38;;;3.55;;
8556;SDS011;4316;53.840;10.762;2022-07-22T07:49:24;12.82;;;3.38;;
8556;SDS011;4316;53.840;10.762;2022-07-22T07:51:50;20.63;;;3.50;;
8556;SDS011;4316;53.840;10.762;2022-07-22T07:54:16;32.75;;;5.10;;
8556;SDS011;4316;53.840;10.762;2022-07-22T07:56:43;17.30;;;4.20;;
8556;SDS011;4316;53.840;10.762;2022-07-22T07:59:09;15.65;;;3.55;;
8556;SDS011;4316;53.840;10.762;2022-07-22T08:01:35;22.73;;;4.72;;
8556;SDS011;4316;53.840;10.762;2022-07-22T08:04:00;10.32;;;3.10;;
8556;SDS011;4316;53.840;10.762;2022-07-22T08:06:26;12.15;;;3.47;;
8556;SDS011;4316;53.840;10.762;2022-07-22T08:08:52;16.85;;;3.88;;
8556;SDS011;4316;53.840;10.762;2022-07-22T08:11:28;16.02;;;3.75;;
8556;SDS011;4316;53.840;10.762;2022-07-22T08:14:13;14.73;;;3.75;;
8556;SDS011;4316;53.840;10.762;2022-07-22T08:16:52;14.18;;;3.47;;
8556;SDS011;4316;53.840;10.762;2022-07-22T08:19:18;16.05;;;5.47;;
8556;SDS011;4316;53.840;10.762;2022-07-22T08:21:44;12.93;;;3.42;;
8556;SDS011;4316;53.840;10.762;2022-07-22T08:24:18;15.70;;;3.20;;
8556;SDS011;4316;53.840;10.762;2022-07-22T08:26:44;12.05;;;3.13;;
8556;SDS011;4316;53.840;10.762;2022-07-22T08:29:10;12.52;;;3.55;;
8556;SDS011;4316;53.840;10.762;2022-07-22T08:31:36;8.43;;;2.42;;
8556;SDS011;4316;53.840;10.762;2022-07-22T08:34:07;7.65;;;2.65;;
8556;SDS011;4316;53.840;10.762;2022-07-22T08:36:33;22.92;;;10.25;;
8556;SDS011;4316;53.840;10.762;2022-07-22T08:38:59;11.27;;;3.28;;
8556;SDS011;4316;53.840;10.762;2022-07-22T08:41:25;13.85;;;3.67;;
8556;SDS011;4316;53.840;10.762;2022-07-22T08:43:51;9.68;;;2.65;;
8556;SDS011;4316;53.840;10.762;2022-07-22T08:46:17;11.35;;;3.63;;
8556;SDS011;4316;53.840;10.762;2022-07-22T08:49:06;9.07;;;2.63;;
8556;SDS011;4316;53.840;10.762;2022-07-22T08:51:45;11.77;;;3.17;;
8556;SDS011;4316;53.840;10.762;2022-07-22T08:54:16;10.55;;;2.75;;
8556;SDS011;4316;53.840;10.762;2022-07-22T08:56:45;14.35;;;3.28;;
8556;SDS011;4316;53.840;10.762;2022-07-22T08:59:12;13.77;;;3.25;;
8556;SDS011;4316;53.840;10.762;2022-07-22T09:01:38;11.60;;;2.85;;
8556;SDS011;4316;53.840;10.762;2022-07-22T09:04:29;14.68;;;3.67;;
8556;SDS011;4316;53.840;10.762;2022-07-22T09:06:56;10.93;;;2.83;;
8556;SDS011;4316;53.840;10.762;2022-07-22T09:09:32;16.85;;;3.40;;
8556;SDS011;4316;53.840;10.762;2022-07-22T09:12:14;8.88;;;2.38;;
8556;SDS011;4316;53.840;10.762;2022-07-22T09:15:08;12.32;;;2.72;;
8556;SDS011;4316;53.840;10.762;2022-07-22T09:17:40;7.40;;;2.47;;
8556;SDS011;4316;53.840;10.762;2022-07-22T09:20:41;11.23;;;3.40;;
8556;SDS011;4316;53.840;10.762;2022-07-22T09:23:28;11.25;;;3.08;;
8556;SDS011;4316;53.840;10.762;2022-07-22T09:26:05;11.25;;;2.75;;
8556;SDS011;4316;53.840;10.762;2022-07-22T09:28:55;7.57;;;2.40;;
8556;SDS011;4316;53.840;10.762;2022-07-22T09:31:29;11.30;;;2.60;;
8556;SDS011;4316;53.840;10.762;2022-07-22T09:34:05;10.60;;;2.75;;
8556;SDS011;4316;53.840;10.762;2022-07-22T09:36:31;10.55;;;3.10;;
8556;SDS011;4316;53.840;10.762;2022-07-22T09:38:57;13.80;;;3.03;;
8556;SDS011;4316;53.840;10.762;2022-07-22T09:41:23;8.05;;;2.30;;
8556;SDS011;4316;53.840;10.762;2022-07-22T09:43:49;11.38;;;2.40;;
8556;SDS011;4316;53.840;10.762;2022-07-22T09:46:21;6.70;;;2.05;;
8556;SDS011;4316;53.840;10.762;2022-07-22T09:52:17;9.57;;;2.20;;
8556;SDS011;4316;53.840;10.762;2022-07-22T09:55:03;5.32;;;2.38;;
8556;SDS011;4316;53.840;10.762;2022-07-22T09:57:31;6.63;;;2.25;;
8556;SDS011;4316;53.840;10.762;2022-07-22T09:59:56;9.60;;;2.65;;
8556;SDS011;4316;53.840;10.762;2022-07-22T10:03:01;9.70;;;2.90;;
8556;SDS011;4316;53.840;10.762;2022-07-22T10:05:30;9.27;;;2.33;;
8556;SDS011;4316;53.840;10.762;2022-07-22T10:07:57;6.90;;;2.03;;
8556;SDS011;4316;53.840;10.762;2022-07-22T10:10:28;6.75;;;2.40;;
8556;SDS011;4316;53.840;10.762;2022-07-22T10:12:55;7.45;;;1.98;;
8556;SDS011;4316;53.840;10.762;2022-07-22T10:15:22;10.00;;;2.70;;
8556;SDS011;4316;53.840;10.762;2022-07-22T10:17:51;10.68;;;2.30;;
8556;SDS011;4316;53.840;10.762;2022-07-22T10:20:20;13.55;;;2.35;;
8556;SDS011;4316;53.840;10.762;2022-07-22T10:22:49;11.15;;;2.53;;
8556;SDS011;4316;53.840;10.762;2022-07-22T10:25:21;10.05;;;2.58;;
8556;SDS011;4316;53.840;10.762;2022-07-22T10:27:54;4.30;;;1.63;;
8556;SDS011;4316;53.840;10.762;2022-07-22T10:30:34;13.85;;;2.42;;
8556;SDS011;4316;53.840;10.762;2022-07-22T10:33:08;8.88;;;3.17;;
8556;SDS011;4316;53.840;10.762;2022-07-22T10:38:23;5.95;;;2.28;;
8556;SDS011;4316;53.840;10.762;2022-07-22T10:40:53;5.88;;;2.10;;
8556;SDS011;4316;53.840;10.762;2022-07-22T10:43:22;12.35;;;2.25;;
8556;SDS011;4316;53.840;10.762;2022-07-22T10:51:09;9.57;;;1.83;;
8556;SDS011;4316;53.840;10.762;2022-07-22T10:53:49;7.75;;;2.35;;
8556;SDS011;4316;53.840;10.762;2022-07-22T10:56:22;7.93;;;2.03;;
8556;SDS011;4316;53.840;10.762;2022-07-22T10:59:07;7.18;;;1.98;;
8556;SDS011;4316;53.840;10.762;2022-07-22T11:01:47;5.45;;;2.10;;
8556;SDS011;4316;53.840;10.762;2022-07-22T11:04:16;5.13;;;1.80;;
8556;SDS011;4316;53.840;10.762;2022-07-22T11:06:44;12.35;;;2.58;;
8556;SDS011;4316;53.840;10.762;2022-07-22T11:09:14;5.65;;;2.15;;
8556;SDS011;4316;53.840;10.762;2022-07-22T11:11:49;6.35;;;1.77;;
8556;SDS011;4316;53.840;10.762;2022-07-22T11:17:06;10.55;;;2.13;;
8556;SDS011;4316;53.840;10.762;2022-07-22T11:19:33;5.90;;;1.70;;
8556;SDS011;4316;53.840;10.762;2022-07-22T11:24:35;6.15;;;1.98;;
8556;SDS011;4316;53.840;10.762;2022-07-22T11:27:01;7.35;;;1.80;;
8556;SDS011;4316;53.840;10.762;2022-07-22T11:29:32;11.60;;;2.10;;
8556;SDS011;4316;53.840;10.762;2022-07-22T11:32:00;3.92;;;1.45;;
8556;SDS011;4316;53.840;10.762;2022-07-22T11:34:27;8.32;;;1.85;;
8556;SDS011;4316;53.840;10.762;2022-07-22T11:36:53;8.65;;;2.25;;
8556;SDS011;4316;53.840;10.762;2022-07-22T11:39:21;7.80;;;2.38;;
8556;SDS011;4316;53.840;10.762;2022-07-22T11:41:52;4.22;;;1.75;;
8556;SDS011;4316;53.840;10.762;2022-07-22T11:44:19;5.47;;;1.80;;
8556;SDS011;4316;53.840;10.762;2022-07-22T11:46:50;4.88;;;2.17;;
8556;SDS011;4316;53.840;10.762;2022-07-22T11:49:17;4.93;;;2.03;;
8556;SDS011;4316;53.840;10.762;2022-07-22T11:51:44;3.85;;;1.70;;
8556;SDS011;4316;53.840;10.762;2022-07-22T11:54:10;7.25;;;2.13;;
8556;SDS011;4316;53.840;10.762;2022-07-22T11:56:37;4.82;;;1.40;;
8556;SDS011;4316;53.840;10.762;2022-07-22T11:59:03;10.10;;;1.95;;
8556;SDS011;4316;53.840;10.762;2022-07-22T12:01:30;5.43;;;1.60;;
8556;SDS011;4316;53.840;10.762;2022-07-22T12:04:02;7.72;;;2.30;;
8556;SDS011;4316;53.840;10.762;2022-07-22T12:06:30;6.97;;;2.15;;
8556;SDS011;4316;53.840;10.762;2022-07-22T12:09:07;9.57;;;2.10;;
8556;SDS011;4316;53.840;10.762;2022-07-22T12:11:39;6.90;;;2.38;;
8556;SDS011;4316;53.840;10.762;2022-07-22T12:14:07;6.00;;;1.90;;
8556;SDS011;4316;53.840;10.762;2022-07-22T12:16:34;8.68;;;2.22;;
8556;SDS011;4316;53.840;10.762;2022-07-22T12:19:06;3.97;;;1.67;;
8556;SDS011;4316;53.840;10.762;2022-07-22T12:21:57;5.45;;;1.80;;
8556;SDS011;4316;53.840;10.762;2022-07-22T12:24:41;3.40;;;1.63;;
8556;SDS011;4316;53.840;10.762;2022-07-22T12:27:09;5.35;;;1.83;;
8556;SDS011;4316;53.840;10.762;2022-07-22T12:34:32;6.10;;;1.85;;
8556;SDS011;4316;53.840;10.762;2022-07-22T12:37:00;6.68;;;1.92;;
8556;SDS011;4316;53.840;10.762;2022-07-22T12:39:37;5.35;;;1.65;;
8556;SDS011;4316;53.840;10.762;2022-07-22T12:42:03;8.93;;;2.42;;
8556;SDS011;4316;53.840;10.762;2022-07-22T12:44:45;14.50;;;2.40;;
8556;SDS011;4316;53.840;10.762;2022-07-22T12:47:16;7.60;;;1.88;;
8556;SDS011;4316;53.840;10.762;2022-07-22T12:49:42;15.27;;;2.65;;
8556;SDS011;4316;53.840;10.762;2022-07-22T12:52:11;14.55;;;2.88;;
8556;SDS011;4316;53.840;10.762;2022-07-22T12:54:39;12.07;;;2.75;;
8556;SDS011;4316;53.840;10.762;2022-07-22T12:57:06;89.65;;;8.13;;
8556;SDS011;4316;53.840;10.762;2022-07-22T12:59:34;10.55;;;1.80;;
8556;SDS011;4316;53.840;10.762;2022-07-22T13:02:00;7.30;;;1.98;;
8556;SDS011;4316;53.840;10.762;2022-07-22T13:04:27;6.38;;;1.67;;
8556;SDS011;4316;53.840;10.762;2022-07-22T13:06:53;10.15;;;2.20;;
8556;SDS011;4316;53.840;10.762;2022-07-22T13:09:18;11.43;;;3.45;;
8556;SDS011;4316;53.840;10.762;2022-07-22T13:11:44;8.70;;;3.65;;
8556;SDS011;4316;53.840;10.762;2022-07-22T13:14:11;8.32;;;2.97;;
8556;SDS011;4316;53.840;10.762;2022-07-22T13:16:37;6.15;;;1.67;;
8556;SDS011;4316;53.840;10.762;2022-07-22T13:19:03;7.28;;;1.75;;
8556;SDS011;4316;53.840;10.762;2022-07-22T13:21:29;15.50;;;3.30;;
8556;SDS011;4316;53.840;10.762;2022-07-22T13:23:55;8.07;;;2.28;;
8556;SDS011;4316;53.840;10.762;2022-07-22T13:26:20;5.82;;;1.38;;
8556;SDS011;4316;53.840;10.762;2022-07-22T13:28:46;7.57;;;1.98;;
8556;SDS011;4316;53.840;10.762;2022-07-22T13:31:12;4.80;;;1.60;;
8556;SDS011;4316;53.840;10.762;2022-07-22T13:33:38;8.00;;;1.90;;
8556;SDS011;4316;53.840;10.762;2022-07-22T13:36:04;7.78;;;2.05;;
8556;SDS011;4316;53.840;10.762;2022-07-22T13:38:30;8.38;;;1.75;;
8556;SDS011;4316;53.840;10.762;2022-07-22T13:40:56;6.78;;;1.80;;
8556;SDS011;4316;53.840;10.762;2022-07-22T13:43:22;5.57;;;1.70;;
8556;SDS011;4316;53.840;10.762;2022-07-22T13:45:49;4.57;;;1.70;;
8556;SDS011;4316;53.840;10.762;2022-07-22T13:48:16;8.95;;;2.22;;
8556;SDS011;4316;53.840;10.762;2022-07-22T13:50:46;2.92;;;1.40;;
8556;SDS011;4316;53.840;10.762;2022-07-22T13:53:12;6.68;;;1.83;;
8556;SDS011;4316;53.840;10.762;2022-07-22T13:55:38;5.78;;;1.63;;
8556;SDS011;4316;53.840;10.762;2022-07-22T13:58:04;3.60;;;1.50;;
8556;SDS011;4316;53.840;10.762;2022-07-22T14:00:30;10.95;;;1.95;;
8556;SDS011;4316;53.840;10.762;2022-07-22T14:02:56;7.20;;;2.33;;
8556;SDS011;4316;53.840;10.762;2022-07-22T14:05:21;6.50;;;1.90;;
8556;SDS011;4316;53.840;10.762;2022-07-22T14:07:47;4.00;;;1.75;;
8556;SDS011;4316;53.840;10.762;2022-07-22T14:10:13;8.82;;;1.85;;
8556;SDS011;4316;53.840;10.762;2022-07-22T14:12:39;7.28;;;1.95;;
8556;SDS011;4316;53.840;10.762;2022-07-22T14:15:05;4.25;;;1.88;;
8556;SDS011;4316;53.840;10.762;2022-07-22T14:17:33;7.15;;;2.15;;
8556;SDS011;4316;53.840;10.762;2022-07-22T14:19:58;4.60;;;1.60;;
8556;SDS011;4316;53.840;10.762;2022-07-22T14:22:24;5.60;;;1.67;;
8556;SDS011;4316;53.840;10.762;2022-07-22T14:24:50;5.78;;;1.60;;
8556;SDS011;4316;53.840;10.762;2022-07-22T14:27:15;3.08;;;1.20;;
8556;SDS011;4316;53.840;10.762;2022-07-22T14:29:41;3.25;;;1.25;;
8556;SDS011;4316;53.840;10.762;2022-07-22T14:32:07;6.80;;;1.65;;
8556;SDS011;4316;53.840;10.762;2022-07-22T14:34:33;5.18;;;1.77;;
8556;SDS011;4316;53.840;10.762;2022-07-22T14:36:58;4.57;;;1.60;;
8556;SDS011;4316;53.840;10.762;2022-07-22T14:39:24;8.07;;;1.98;;
8556;SDS011;4316;53.840;10.762;2022-07-22T14:41:50;7.00;;;2.40;;
8556;SDS011;4316;53.840;10.762;2022-07-22T14:44:15;8.55;;;2.63;;
8556;SDS011;4316;53.840;10.762;2022-07-22T14:46:41;7.45;;;2.05;;
8556;SDS011;4316;53.840;10.762;2022-07-22T14:49:06;5.13;;;1.67;;
8556;SDS011;4316;53.840;10.762;2022-07-22T14:51:32;4.88;;;1.35;;
8556;SDS011;4316;53.840;10.762;2022-07-22T14:53:58;7.25;;;2.13;;
8556;SDS011;4316;53.840;10.762;2022-07-22T14:56:23;5.93;;;1.50;;
8556;SDS011;4316;53.840;10.762;2022-07-22T14:58:49;6.05;;;1.52;;
8556;SDS011;4316;53.840;10.762;2022-07-22T15:01:15;4.47;;;1.52;;
8556;SDS011;4316;53.840;10.762;2022-07-22T15:03:41;6.00;;;1.63;;
8556;SDS011;4316;53.840;10.762;2022-07-22T15:06:06;5.70;;;1.98;;
8556;SDS011;4316;53.840;10.762;2022-07-22T15:08:32;5.03;;;1.75;;
8556;SDS011;4316;53.840;10.762;2022-07-22T15:10:58;7.57;;;1.48;;
8556;SDS011;4316;53.840;10.762;2022-07-22T15:13:25;3.58;;;1.25;;
8556;SDS011;4316;53.840;10.762;2022-07-22T15:15:51;4.18;;;1.77;;
8556;SDS011;4316;53.840;10.762;2022-07-22T15:18:16;4.07;;;1.50;;
8556;SDS011;4316;53.840;10.762;2022-07-22T15:20:42;6.40;;;2.05;;